Terminal Aerodrome Forecast
Issued by NWS

Home | Current Version | Previous Version | Text Only | Print | Product List | Glossary On
Versions: 1 2 3 4 5 6 7 8 9 10 11 12 13 14 15 16 17 18 19 20 21 22 23 24 25 26 27 28 29
319
FTUS41 KGYX 182322
TAFAUG
TAF
KAUG 182322Z 1900/1924 14004KT P6SM SCT060 OVC100
      TEMPO 1900/1904 -SHRASN SCT040 BKN060 OVC100
     FM190400 13004KT P6SM -SHRA BKN035 OVC060
     FM190600 15006KT 4SM -RA BR BKN012 OVC030
     FM190800 14004KT 2SM -RA BR OVC003 WS020/18035KT
     FM191400 20007G17KT 5SM -SHRA BR BKN008 OVC012
     FM192000 27014G24KT P6SM SCT045 BKN100=

USA.gov is the U.S. government's official web portal to all federal, state and local government web resources and services.